createdAt,value
2022-11-22T00:03:35.640Z,88.30
2022-11-22T00:06:16.202Z,82.28
2022-11-22T00:09:00.788Z,70.68
2022-11-22T00:11:55.131Z,70.28
2022-11-22T00:14:48.995Z,65.20
2022-11-22T00:17:31.026Z,64.32
2022-11-22T00:20:19.105Z,44.00
2022-11-22T00:23:09.774Z,63.65
2022-11-22T00:25:51.914Z,61.13
2022-11-22T00:28:36.558Z,71.13
2022-11-22T00:31:25.436Z,62.15
2022-11-22T00:34:15.393Z,62.75
2022-11-22T00:37:09.967Z,55.40
2022-11-22T00:39:53.882Z,49.20
2022-11-22T00:42:39.295Z,54.00
2022-11-22T00:45:20.512Z,56.75
2022-11-22T00:48:09.504Z,60.85
2022-11-22T00:50:59.741Z,55.65
2022-11-22T00:53:43.660Z,57.85
2022-11-22T00:56:32.930Z,56.35
2022-11-22T00:59:09.091Z,58.00
2022-11-22T01:01:56.655Z,52.75
2022-11-22T01:04:47.275Z,68.53
2022-11-22T01:07:29.732Z,50.05
2022-11-22T01:10:12.916Z,53.10
2022-11-22T01:12:53.760Z,53.95
2022-11-22T01:15:42.728Z,60.72
2022-11-22T01:18:27.923Z,68.10
2022-11-22T01:21:11.212Z,72.32
2022-11-22T01:23:53.902Z,61.03
2022-11-22T01:26:35.868Z,70.93
2022-11-22T01:29:24.886Z,76.45
2022-11-22T01:32:10.940Z,70.88
2022-11-22T01:34:57.152Z,72.25
2022-11-22T01:37:46.078Z,72.75
2022-11-22T01:40:40.658Z,61.80
2022-11-22T01:43:36.046Z,85.28
2022-11-22T01:46:37.025Z,62.53
2022-11-22T01:49:30.196Z,66.35
2022-11-22T01:52:12.063Z,60.03
2022-11-22T01:55:01.802Z,61.78
2022-11-22T01:57:47.221Z,64.72
2022-11-22T02:00:25.324Z,62.13
2022-11-22T02:03:13.625Z,60.17
2022-11-22T02:06:01.097Z,73.28
2022-11-22T02:08:52.846Z,54.40
2022-11-22T02:11:35.850Z,56.95
2022-11-22T02:14:24.149Z,51.22
2022-11-22T02:17:18.000Z,70.68
2022-11-22T02:20:01.728Z,64.03
2022-11-22T02:23:30.554Z,69.78
2022-11-22T02:26:13.934Z,58.90
2022-11-22T02:29:05.849Z,62.70
2022-11-22T02:31:48.198Z,68.05
2022-11-22T02:34:32.551Z,70.03
2022-11-22T02:37:11.996Z,62.28
2022-11-22T02:39:51.932Z,76.50
2022-11-22T02:42:37.618Z,67.47
2022-11-22T02:45:21.454Z,89.47
2022-11-22T02:48:19.961Z,75.90
2022-11-22T02:51:05.996Z,72.65
2022-11-22T02:53:47.089Z,79.78
2022-11-22T02:56:30.844Z,79.53
2022-11-22T02:59:14.252Z,74.60
2022-11-22T03:01:54.865Z,73.43
2022-11-22T03:04:38.975Z,80.13
2022-11-22T03:07:36.389Z,75.63
2022-11-22T03:10:14.438Z,79.18
2022-11-22T03:13:00.030Z,82.18
2022-11-22T03:15:45.681Z,95.70
2022-11-22T03:18:29.447Z,81.40
2022-11-22T03:21:18.723Z,82.72
2022-11-22T03:24:00.054Z,76.65
2022-11-22T03:26:41.912Z,75.15
2022-11-22T03:29:22.907Z,73.20
2022-11-22T03:32:10.106Z,79.95
2022-11-22T03:34:48.956Z,70.57
2022-11-22T03:37:36.065Z,76.60
2022-11-22T03:40:14.896Z,69.20
2022-11-22T03:42:53.521Z,67.07
2022-11-22T03:45:44.084Z,68.80
2022-11-22T03:48:31.886Z,88.60
2022-11-22T03:51:13.904Z,68.90
2022-11-22T03:53:56.636Z,63.22
2022-11-22T03:56:44.684Z,66.65
2022-11-22T03:59:37.084Z,54.47
2022-11-22T04:02:24.339Z,51.92
2022-11-22T04:05:12.497Z,49.58
2022-11-22T04:07:52.149Z,56.08
2022-11-22T04:10:38.992Z,55.17
2022-11-22T04:13:51.551Z,56.78
2022-11-22T04:16:40.681Z,54.30
2022-11-22T04:19:28.300Z,53.92
2022-11-22T04:22:17.177Z,49.28
2022-11-22T04:25:14.069Z,53.00
2022-11-22T04:28:06.851Z,47.17
2022-11-22T04:31:07.234Z,45.08
2022-11-22T04:33:54.155Z,52.63
2022-11-22T04:36:40.190Z,48.30
2022-11-22T04:39:27.424Z,54.35
2022-11-22T04:42:25.316Z,44.53
2022-11-22T04:45:14.034Z,47.38
2022-11-22T04:48:04.781Z,49.13
2022-11-22T04:50:59.741Z,47.08
2022-11-22T04:53:55.203Z,51.47
2022-11-22T04:56:51.181Z,47.13
2022-11-22T04:59:32.345Z,50.80
2022-11-22T05:02:13.882Z,50.28
2022-11-22T05:04:59.872Z,49.67
2022-11-22T05:07:54.627Z,49.20
2022-11-22T05:10:50.324Z,47.67
2022-11-22T05:13:28.525Z,49.72
2022-11-22T05:16:13.801Z,49.50
2022-11-22T05:19:11.794Z,43.60
2022-11-22T05:21:50.322Z,50.25
2022-11-22T05:24:26.029Z,53.25
2022-11-22T05:27:04.730Z,43.17
2022-11-22T05:29:45.897Z,46.20
2022-11-22T05:32:27.948Z,43.90
2022-11-22T05:35:08.151Z,48.78
2022-11-22T05:37:46.715Z,50.47
2022-11-22T05:40:32.562Z,52.00
2022-11-22T05:43:17.682Z,43.35
2022-11-22T05:46:04.469Z,46.65
2022-11-22T05:48:53.106Z,49.15
2022-11-22T05:51:35.001Z,51.08
2022-11-22T05:54:18.818Z,54.53
2022-11-22T05:56:55.906Z,46.92
2022-11-22T05:59:31.316Z,64.65
2022-11-22T06:02:09.970Z,62.90
2022-11-22T06:05:01.665Z,56.33
2022-11-22T06:07:51.921Z,61.72
2022-11-22T06:10:45.196Z,63.58
2022-11-22T06:14:01.506Z,58.13
2022-11-22T06:16:52.010Z,65.45
2022-11-22T06:19:27.142Z,66.22
2022-11-22T06:22:08.924Z,65.85
2022-11-22T06:24:57.424Z,56.75
2022-11-22T06:27:41.247Z,65.47
2022-11-22T06:30:19.570Z,56.65
2022-11-22T06:33:09.002Z,64.55
2022-11-22T06:35:54.493Z,55.28
2022-11-22T06:38:35.629Z,60.08
2022-11-22T06:41:16.971Z,56.50
2022-11-22T06:44:04.398Z,64.63
2022-11-22T06:46:56.917Z,73.35
2022-11-22T06:49:38.456Z,68.50
2022-11-22T06:52:22.940Z,66.97
2022-11-22T06:55:07.984Z,70.88
2022-11-22T06:57:46.870Z,62.58
2022-11-22T07:00:35.440Z,70.32
2022-11-22T07:03:17.027Z,70.03
2022-11-22T07:06:01.713Z,63.22
2022-11-22T07:08:43.440Z,57.03
2022-11-22T07:14:08.316Z,51.25
2022-11-22T07:16:48.907Z,51.92
2022-11-22T07:19:34.745Z,54.40
2022-11-22T07:22:09.374Z,52.97
2022-11-22T07:24:53.205Z,57.13
2022-11-22T07:30:20.827Z,53.28
2022-11-22T07:32:52.890Z,59.33
2022-11-22T07:35:39.678Z,50.75
2022-11-22T07:38:29.200Z,53.13
2022-11-22T07:41:18.152Z,48.72
2022-11-22T07:44:08.884Z,55.08
2022-11-22T07:46:50.897Z,49.05
2022-11-22T07:49:39.889Z,56.80
2022-11-22T07:52:19.820Z,48.58
2022-11-22T07:54:53.910Z,54.40
2022-11-22T07:57:34.933Z,53.00
2022-11-22T08:00:18.394Z,55.38
2022-11-22T08:03:03.947Z,56.60
2022-11-22T08:05:44.708Z,46.83
2022-11-22T08:08:31.074Z,53.70
2022-11-22T08:11:14.252Z,52.95
2022-11-22T08:14:00.880Z,53.97
2022-11-22T08:16:36.056Z,68.75
2022-11-22T08:19:18.124Z,64.70
2022-11-22T08:22:02.021Z,57.33
2022-11-22T08:24:53.870Z,52.80
2022-11-22T08:27:38.072Z,50.33
2022-11-22T08:30:21.835Z,58.85
2022-11-22T08:32:59.892Z,54.63
2022-11-22T08:35:46.894Z,54.05
2022-11-22T08:38:36.272Z,54.92
2022-11-22T08:43:56.674Z,50.90
2022-11-22T08:46:43.856Z,53.10
2022-11-22T08:49:28.316Z,51.25
2022-11-22T08:52:18.277Z,51.00
2022-11-22T08:55:04.182Z,53.78
2022-11-22T08:57:44.176Z,51.63
2022-11-22T09:00:33.225Z,54.30
2022-11-22T09:03:17.020Z,56.85
2022-11-22T09:09:39.990Z,51.70
2022-11-22T09:12:30.865Z,58.28
2022-11-22T09:15:18.870Z,60.75
2022-11-22T09:18:04.127Z,70.35
2022-11-22T09:20:41.916Z,63.67
2022-11-22T09:23:22.129Z,67.20
2022-11-22T09:26:22.480Z,66.15
2022-11-22T09:29:25.276Z,72.57
2022-11-22T09:32:29.347Z,63.10
2022-11-22T09:35:20.840Z,68.43
2022-11-22T09:38:11.252Z,71.28
2022-11-22T09:41:02.423Z,55.93
2022-11-22T09:44:10.575Z,67.45
2022-11-22T09:47:01.716Z,63.53
2022-11-22T09:50:16.679Z,62.15
2022-11-22T09:53:05.968Z,64.68
2022-11-22T09:55:59.694Z,71.55
2022-11-22T09:58:39.875Z,68.05
2022-11-22T10:01:39.405Z,62.85
2022-11-22T10:04:19.693Z,67.88
2022-11-22T10:07:29.643Z,67.50
2022-11-22T10:10:19.027Z,69.38
2022-11-22T10:13:46.260Z,63.25
2022-11-22T10:16:34.020Z,68.03
2022-11-22T10:19:23.810Z,66.82
2022-11-22T10:22:05.175Z,53.65
2022-11-22T10:25:04.848Z,68.28
2022-11-22T10:27:47.893Z,70.30
2022-11-22T10:30:30.791Z,73.85
2022-11-22T10:33:46.530Z,64.20
2022-11-22T10:36:40.592Z,63.97
2022-11-22T10:39:34.716Z,71.30
2022-11-22T10:42:42.819Z,67.43
2022-11-22T10:45:36.355Z,65.00
2022-11-22T10:48:23.998Z,65.22
2022-11-22T10:51:08.192Z,69.93
2022-11-22T10:54:03.695Z,62.15
2022-11-22T10:57:41.042Z,70.97
2022-11-22T11:00:30.909Z,61.92
2022-11-22T11:03:30.869Z,70.25
2022-11-22T11:06:57.085Z,64.22
2022-11-22T11:13:05.768Z,64.93
2022-11-22T11:16:02.730Z,63.00
2022-11-22T11:18:57.613Z,69.75
2022-11-22T11:21:43.969Z,59.40
2022-11-22T11:24:45.443Z,63.88
2022-11-22T11:27:28.447Z,62.60
2022-11-22T11:30:14.002Z,69.00
2022-11-22T11:33:23.861Z,62.88
2022-11-22T11:36:18.879Z,72.53
2022-11-22T11:39:11.183Z,64.35
2022-11-22T11:42:04.649Z,70.30
2022-11-22T11:44:49.246Z,72.30
2022-11-22T11:47:50.631Z,78.18
2022-11-22T11:50:40.204Z,83.30
2022-11-22T11:53:35.934Z,78.32
2022-11-22T11:57:03.760Z,52.43
2022-11-22T11:59:53.187Z,66.03
2022-11-22T12:02:34.095Z,74.95
2022-11-22T12:05:24.389Z,69.18
2022-11-22T12:08:44.644Z,63.13
2022-11-22T12:12:03.574Z,69.75
2022-11-22T12:15:10.808Z,74.53
2022-11-22T12:18:11.661Z,65.93
2022-11-22T12:21:09.692Z,63.42
2022-11-22T12:27:37.037Z,69.95
2022-11-22T12:30:23.931Z,63.55
2022-11-22T12:33:13.573Z,59.17
2022-11-22T12:35:59.265Z,66.30
2022-11-22T12:38:43.762Z,65.78
2022-11-22T12:41:34.507Z,55.53
2022-11-22T12:44:25.843Z,56.80
2022-11-22T12:47:13.319Z,59.75
2022-11-22T12:48:32.658Z,70.70
2022-11-22T12:50:03.419Z,57.10
2022-11-22T12:52:50.334Z,54.03
2022-11-22T12:55:45.853Z,52.40
2022-11-22T12:58:41.486Z,54.40
2022-11-22T13:01:57.031Z,57.72
2022-11-22T13:04:55.017Z,55.75
2022-11-22T13:07:45.947Z,50.50
2022-11-22T13:11:01.759Z,53.83
2022-11-22T13:13:47.070Z,50.40
2022-11-22T13:16:27.755Z,49.80
2022-11-22T13:19:18.900Z,48.10
2022-11-22T13:22:35.569Z,48.88
2022-11-22T13:25:44.811Z,46.00
2022-11-22T13:28:32.954Z,44.90
2022-11-22T13:31:21.625Z,47.80
2022-11-22T13:34:24.556Z,43.83
2022-11-22T13:37:18.043Z,40.08
2022-11-22T13:40:20.434Z,44.90
2022-11-22T13:43:36.447Z,36.30
2022-11-22T13:46:47.858Z,43.80
2022-11-22T13:49:49.392Z,37.60
2022-11-22T13:52:58.866Z,39.72
2022-11-22T13:55:42.272Z,38.25
2022-11-22T13:58:59.292Z,40.83
2022-11-22T14:02:02.917Z,40.33
2022-11-22T14:04:51.738Z,40.15
2022-11-22T14:08:03.298Z,38.70
2022-11-22T14:11:12.682Z,36.90
2022-11-22T14:14:00.748Z,41.83
2022-11-22T14:17:06.390Z,42.67
2022-11-22T14:20:09.281Z,38.08
2022-11-22T14:23:00.789Z,41.03
2022-11-22T14:26:04.365Z,36.92
2022-11-22T14:29:00.308Z,41.50
2022-11-22T14:31:42.236Z,34.75
2022-11-22T14:34:58.770Z,38.55
2022-11-22T14:38:02.649Z,40.78
2022-11-22T14:40:44.282Z,37.97
2022-11-22T14:43:37.416Z,38.72
2022-11-22T14:46:52.400Z,37.13
2022-11-22T14:49:47.874Z,38.75
2022-11-22T14:52:36.857Z,40.20
2022-11-22T14:55:26.861Z,37.08
2022-11-22T14:58:09.016Z,36.53
2022-11-22T15:01:22.905Z,35.38
2022-11-22T15:09:13.964Z,38.67
2022-11-22T15:09:15.084Z,41.15
2022-11-22T15:11:41.840Z,38.53
2022-11-22T15:14:54.131Z,43.90
2022-11-22T15:57:32.055Z,45.50
2022-11-22T16:00:35.201Z,50.60
2022-11-22T16:03:44.308Z,88.25
2022-11-22T16:06:37.723Z,69.20
2022-11-22T16:09:30.852Z,83.22
2022-11-22T16:12:29.539Z,36.30
2022-11-22T16:15:28.640Z,36.85
2022-11-22T16:18:22.682Z,30.30
2022-11-22T16:24:23.798Z,32.67
2022-11-22T16:27:19.316Z,32.78
2022-11-22T16:30:04.638Z,34.75
2022-11-22T16:32:52.587Z,31.33
2022-11-22T16:35:34.899Z,37.08
2022-11-22T16:38:28.039Z,35.10
2022-11-22T16:41:17.428Z,34.08
2022-11-22T16:44:07.463Z,30.08
2022-11-22T16:46:54.791Z,30.23
2022-11-22T16:49:33.990Z,34.03
2022-11-22T16:52:22.102Z,36.97
2022-11-22T16:55:09.329Z,29.95
2022-11-22T16:57:50.615Z,35.70
2022-11-22T17:00:46.311Z,32.47
2022-11-22T17:03:36.462Z,30.30
2022-11-22T17:06:32.437Z,30.88
2022-11-22T17:09:30.025Z,29.42
2022-11-22T17:12:14.534Z,31.67
2022-11-22T17:15:06.168Z,38.85
2022-11-22T17:17:53.677Z,31.80
2022-11-22T17:20:34.695Z,27.98
2022-11-22T17:23:26.134Z,33.22
2022-11-22T17:26:09.053Z,29.00
2022-11-22T17:28:58.745Z,30.30
2022-11-22T17:31:38.947Z,29.85
2022-11-22T17:34:12.092Z,31.27
2022-11-22T17:37:03.391Z,26.38
2022-11-22T17:39:47.103Z,29.45
2022-11-22T17:45:09.046Z,26.45
2022-11-22T17:48:04.958Z,26.52
2022-11-22T17:50:51.655Z,27.02
2022-11-22T17:53:46.779Z,25.80
2022-11-22T17:56:29.037Z,31.58
2022-11-22T17:59:01.567Z,26.95
2022-11-22T18:04:27.043Z,26.75
2022-11-22T18:07:07.170Z,28.70
2022-11-22T18:09:48.801Z,28.40
2022-11-22T18:12:26.093Z,26.65
2022-11-22T18:15:14.310Z,24.80
2022-11-22T18:17:49.068Z,25.50
2022-11-22T18:20:32.680Z,25.80
2022-11-22T18:23:15.232Z,28.20
2022-11-22T18:26:17.068Z,38.95
2022-11-22T18:32:10.323Z,32.10
2022-11-22T18:34:44.503Z,47.72
2022-11-22T18:37:20.292Z,48.92
2022-11-22T18:40:01.235Z,40.03
2022-11-22T18:42:39.793Z,50.85
2022-11-22T18:45:21.134Z,33.15
2022-11-22T18:48:06.779Z,28.42
2022-11-22T18:50:45.804Z,25.30
2022-11-22T18:53:37.432Z,24.70
2022-11-22T18:56:14.473Z,27.75
2022-11-22T18:58:48.886Z,28.23
2022-11-22T19:01:29.872Z,25.67
2022-11-22T19:04:07.361Z,26.38
2022-11-22T19:06:51.153Z,27.63
2022-11-22T19:09:28.628Z,27.85
2022-11-22T19:12:14.929Z,27.85
2022-11-22T19:14:59.984Z,28.05
2022-11-22T19:17:43.769Z,28.70
2022-11-22T19:20:54.224Z,28.02
2022-11-22T19:23:41.376Z,30.83
2022-11-22T19:26:20.700Z,36.88
2022-11-22T19:29:02.838Z,30.73
2022-11-22T19:31:42.819Z,31.55
2022-11-22T19:34:21.081Z,29.13
2022-11-22T19:37:08.097Z,31.17
2022-11-22T19:39:45.411Z,31.70
2022-11-22T19:42:36.304Z,27.20
2022-11-22T19:45:13.969Z,29.70
2022-11-22T19:47:56.710Z,32.28
2022-11-22T19:50:48.826Z,30.92
2022-11-22T19:53:34.738Z,26.08
2022-11-22T19:56:22.279Z,28.08
2022-11-22T19:59:08.799Z,29.05
2022-11-22T20:01:49.516Z,26.48
2022-11-22T20:04:48.970Z,27.92
2022-11-22T20:07:35.541Z,28.98
2022-11-22T20:10:13.357Z,29.38
2022-11-22T20:13:10.350Z,24.80
2022-11-22T20:15:55.068Z,27.77
2022-11-22T20:18:33.228Z,26.75
2022-11-22T20:21:09.400Z,27.55
2022-11-22T20:23:58.818Z,26.73
2022-11-22T20:26:45.046Z,28.58
2022-11-22T20:29:23.202Z,28.70
2022-11-22T20:32:01.268Z,28.30
2022-11-22T20:34:39.268Z,28.17
2022-11-22T20:37:17.135Z,29.13
2022-11-22T20:40:00.586Z,27.40
2022-11-22T20:42:55.429Z,27.05
2022-11-22T20:45:49.283Z,25.98
2022-11-22T20:48:33.196Z,28.95
2022-11-22T20:53:53.920Z,28.42
2022-11-22T20:56:45.582Z,24.77
2022-11-22T20:59:31.533Z,29.10
2022-11-22T21:02:16.296Z,25.67
2022-11-22T21:05:07.067Z,29.20
2022-11-22T21:07:50.779Z,37.13
2022-11-22T21:10:31.366Z,30.10
2022-11-22T21:13:15.564Z,27.80
2022-11-22T21:16:21.176Z,33.28
2022-11-22T21:19:17.925Z,35.13
2022-11-22T21:21:58.675Z,31.98
2022-11-22T21:24:51.001Z,32.97
2022-11-22T21:27:36.170Z,30.17
2022-11-22T21:30:11.993Z,33.47
2022-11-22T21:32:54.884Z,30.25
2022-11-22T21:35:31.070Z,28.85
2022-11-22T21:38:14.649Z,30.27
2022-11-22T21:41:38.264Z,31.25
2022-11-22T21:44:20.520Z,31.30
2022-11-22T21:47:02.192Z,32.28
2022-11-22T21:49:47.545Z,31.45
2022-11-22T21:52:28.762Z,32.83
2022-11-22T21:55:00.820Z,28.52
2022-11-22T21:57:36.454Z,33.88
2022-11-22T22:00:18.158Z,31.48
2022-11-22T22:02:51.788Z,35.85
2022-11-22T22:08:19.361Z,32.75
2022-11-22T22:10:59.024Z,33.85
2022-11-22T22:13:51.065Z,34.50
2022-11-22T22:16:36.932Z,30.90
2022-11-22T22:19:25.929Z,34.22
2022-11-22T22:22:01.022Z,35.60
2022-11-22T22:24:43.767Z,34.33
2022-11-22T22:27:28.797Z,32.45
2022-11-22T22:30:08.186Z,33.45
2022-11-22T22:32:57.630Z,33.80
2022-11-22T22:35:37.531Z,38.70
2022-11-22T22:38:15.196Z,33.60
2022-11-22T22:40:57.870Z,32.88
2022-11-22T22:43:46.197Z,35.80
2022-11-22T22:46:27.535Z,34.00
2022-11-22T22:49:05.171Z,36.38
2022-11-22T22:51:43.269Z,35.65
2022-11-22T22:54:32.236Z,39.15
2022-11-22T22:57:15.879Z,30.65
2022-11-22T23:00:02.396Z,32.13
2022-11-22T23:02:49.785Z,37.08
2022-11-22T23:05:47.099Z,38.55
2022-11-22T23:08:30.986Z,32.88
2022-11-22T23:11:13.015Z,35.40
2022-11-22T23:14:02.384Z,37.78
2022-11-22T23:16:41.799Z,35.88
2022-11-22T23:19:26.145Z,48.72
2022-11-22T23:22:13.271Z,40.85
2022-11-22T23:24:59.427Z,33.38
2022-11-22T23:27:42.675Z,37.22
2022-11-22T23:33:08.809Z,42.22
2022-11-22T23:36:01.251Z,37.50
2022-11-22T23:38:35.964Z,38.05
2022-11-22T23:41:31.030Z,34.35
2022-11-22T23:44:11.390Z,38.22
2022-11-22T23:47:03.084Z,39.72
2022-11-22T23:49:49.285Z,37.22
2022-11-22T23:52:32.816Z,34.03
2022-11-22T23:55:18.266Z,38.70
2022-11-22T23:58:07.796Z,34.45
